Time;durP1;ratioP1;P1;durP2;ratioP2;P2;SDS_P1;SDS_P2;PMS_P1;PMS_P2;Temp;Humidity;BMP_temperature;BMP_pressure;BME280_temperature;BME280_humidity;BME280_pressure;Samples;Min_cycle;Max_cycle;Signal;HPM_P1;HPM_P2
2022/08/14 00:00:10;;;;;;;2.90;2.60;;;;;;;21.84;41.68;99115.97;342265;28;1109;-77
2022/08/14 00:00:24;;;;;;;4.25;2.50;;;;;;;21.84;41.82;99115.97;342202;28;1059;-77
2022/08/14 00:00:40;;;;;;;4.07;2.60;;;;;;;21.87;41.60;99110.38;342488;28;1111;-77
2022/08/14 00:00:52;;;;;;;2.90;2.60;;;;;;;21.84;42.44;99108.84;341061;29;1041;-77
2022/08/14 00:01:05;;;;;;;3.95;2.50;;;;;;;21.84;41.56;99111.50;342376;28;1047;-78
2022/08/14 00:01:23;;;;;;;4.53;2.60;;;;;;;21.80;41.63;99115.38;343067;28;1703;-77
2022/08/14 00:01:35;;;;;;;4.50;2.70;;;;;;;21.79;41.93;99111.06;343812;28;1059;-77
2022/08/14 00:01:47;;;;;;;3.80;2.47;;;;;;;21.79;42.23;99113.69;344700;28;1031;-77
2022/08/14 00:02:06;;;;;;;2.70;2.50;;;;;;;21.80;41.91;99109.25;345043;28;1182;-77
2022/08/14 00:02:18;;;;;;;2.92;2.72;;;;;;;21.82;42.29;99107.31;345123;28;1054;-77
2022/08/14 00:02:30;;;;;;;3.38;2.72;;;;;;;21.82;42.30;99113.44;345051;28;1080;-77
2022/08/14 00:02:43;;;;;;;4.38;2.60;;;;;;;21.83;42.23;99107.19;345021;28;1301;-77
2022/08/14 00:02:57;;;;;;;3.75;2.60;;;;;;;21.83;41.54;99109.84;344751;28;1066;-77
2022/08/14 00:03:17;;;;;;;2.88;2.50;;;;;;;21.83;41.77;99109.84;345009;28;1330;-78
2022/08/14 00:03:30;;;;;;;3.08;2.58;;;;;;;21.85;41.85;99113.19;344784;28;1187;-77
2022/08/14 00:03:42;;;;;;;2.78;2.53;;;;;;;21.86;41.71;99104.25;344766;28;1288;-77
2022/08/14 00:03:54;;;;;;;2.72;2.50;;;;;;;21.87;41.61;99111.25;345257;28;1226;-77
2022/08/14 00:04:06;;;;;;;3.00;2.50;;;;;;;21.88;41.85;99107.59;344513;28;1624;-77
2022/08/14 00:04:38;;;;;;;3.00;2.60;;;;;;;21.88;42.01;99109.44;344924;28;1910;-77
2022/08/14 00:04:56;;;;;;;2.88;2.60;;;;;;;21.89;42.13;99098.72;344533;28;1593;-77
2022/08/14 00:05:10;;;;;;;2.90;2.70;;;;;;;21.91;42.01;99107.34;343795;28;1033;-77
2022/08/14 00:05:22;;;;;;;2.88;2.67;;;;;;;21.93;42.04;99105.41;344457;28;1342;-77
2022/08/14 00:05:34;;;;;;;3.38;2.50;;;;;;;21.90;41.73;99105.66;343467;28;1274;-77
2022/08/14 00:05:46;;;;;;;4.82;2.55;;;;;;;21.90;42.48;99110.13;344834;28;1977;-77
2022/08/14 00:06:09;;;;;;;5.20;2.50;;;;;;;21.90;42.28;99102.19;343528;28;1165;-77
2022/08/14 00:06:38;;;;;;;3.63;2.70;;;;;;;21.87;41.88;99100.66;344990;28;1556;-77
2022/08/14 00:06:50;;;;;;;4.80;2.72;;;;;;;21.78;42.17;99101.47;344974;28;1188;-77
2022/08/14 00:07:03;;;;;;;6.90;2.90;;;;;;;21.75;42.54;99107.00;345065;28;1255;-77
2022/08/14 00:07:17;;;;;;;6.63;2.88;;;;;;;21.74;42.19;99108.00;343958;28;1752;-77
2022/08/14 00:07:29;;;;;;;3.65;2.70;;;;;;;21.76;42.19;99100.75;343646;28;1382;-77
2022/08/14 00:07:42;;;;;;;3.33;2.60;;;;;;;21.78;42.15;99098.81;343337;28;1594;-77
2022/08/14 00:07:57;;;;;;;3.40;2.60;;;;;;;21.80;41.79;99099.50;342900;28;1687;-77
2022/08/14 00:08:09;;;;;;;3.72;2.60;;;;;;;21.77;42.54;99099.78;343822;28;1041;-77
2022/08/14 00:08:26;;;;;;;3.50;2.70;;;;;;;21.76;42.16;99095.47;343644;28;1047;-77
2022/08/14 00:08:56;;;;;;;5.53;3.00;;;;;;;21.77;42.32;99098.94;342582;28;1818;-77
2022/08/14 00:09:10;;;;;;;3.25;2.63;;;;;;;21.78;42.02;99098.81;342315;28;1121;-77
2022/08/14 00:09:22;;;;;;;2.65;2.42;;;;;;;21.81;42.02;99095.06;342925;28;1630;-77
2022/08/14 00:09:35;;;;;;;2.88;2.63;;;;;;;21.73;42.64;99095.72;343717;28;1202;-77
2022/08/14 00:10:10;;;;;;;5.15;2.70;;;;;;;21.78;42.58;99090.88;346551;28;1009;-77
2022/08/14 00:10:42;;;;;;;3.08;2.75;;;;;;;21.68;42.25;99095.31;344746;28;1844;-78
2022/08/14 00:11:04;;;;;;;3.20;2.80;;;;;;;21.66;42.46;99094.59;344903;28;1809;-77
2022/08/14 00:11:17;;;;;;;3.03;2.72;;;;;;;21.68;42.67;99096.13;344729;28;1049;-77
2022/08/14 00:11:29;;;;;;;4.70;2.90;;;;;;;21.72;42.32;99086.13;343679;28;1067;-77
2022/08/14 00:11:43;;;;;;;4.72;3.00;;;;;;;21.76;42.47;99092.81;343697;28;1098;-77
2022/08/14 00:11:55;;;;;;;4.10;2.83;;;;;;;21.77;42.82;99089.19;343960;28;1091;-77
2022/08/14 00:12:07;;;;;;;5.15;2.80;;;;;;;21.77;42.63;99089.19;344317;28;1105;-77
2022/08/14 00:12:37;;;;;;;4.93;2.90;;;;;;;21.79;42.30;99087.25;343465;28;1628;-77
2022/08/14 00:12:53;;;;;;;4.30;2.90;;;;;;;21.82;42.74;99087.00;343452;28;1019;-77
2022/08/14 00:13:08;;;;;;;4.85;2.70;;;;;;;21.81;42.68;99084.47;342164;28;1276;-78
2022/08/14 00:13:29;;;;;;;3.88;2.72;;;;;;;21.84;42.21;99089.50;342243;28;1035;-77
2022/08/14 00:13:42;;;;;;;3.17;2.85;;;;;;;21.81;42.36;99090.63;342918;28;1262;-77
2022/08/14 00:14:02;;;;;;;3.40;2.90;;;;;;;21.79;42.08;99084.59;345048;28;1301;-77
2022/08/14 00:14:15;;;;;;;3.80;2.78;;;;;;;21.81;42.25;99080.03;345102;28;1022;-77
2022/08/14 00:14:28;;;;;;;4.57;2.70;;;;;;;21.84;42.15;99087.69;345457;28;1028;-77
2022/08/14 00:14:40;;;;;;;4.65;2.70;;;;;;;21.84;42.18;99079.75;344635;28;1672;-76
2022/08/14 00:14:53;;;;;;;3.08;2.70;;;;;;;21.85;42.49;99081.44;344805;28;1626;-77
2022/08/14 00:15:20;;;;;;;3.90;2.90;;;;;;;21.85;42.16;99078.78;344086;28;1487;-77
2022/08/14 00:15:40;;;;;;;3.65;2.90;;;;;;;21.84;42.59;99078.91;345136;28;1115;-77
2022/08/14 00:16:00;;;;;;;3.42;2.85;;;;;;;21.85;42.60;99078.78;344687;28;1218;-77
2022/08/14 00:16:12;;;;;;;3.22;2.83;;;;;;;21.78;42.32;99080.28;343615;28;1229;-77
2022/08/14 00:16:44;;;;;;;2.90;2.70;;;;;;;21.78;42.21;99080.28;342962;28;1424;-77
2022/08/14 00:16:57;;;;;;;2.92;2.67;;;;;;;21.78;42.31;99075.00;345058;28;1274;-77
2022/08/14 00:17:12;;;;;;;3.50;2.85;;;;;;;21.80;42.21;99080.16;343635;28;1095;-78
2022/08/14 00:17:25;;;;;;;3.55;2.72;;;;;;;21.81;42.40;99080.03;343615;28;1100;-77
2022/08/14 00:17:37;;;;;;;2.88;2.55;;;;;;;21.76;42.34;99082.25;343754;28;1082;-77
2022/08/14 00:18:06;;;;;;;3.80;2.78;;;;;;;21.70;42.35;99075.69;343208;28;1173;-77
2022/08/14 00:18:27;;;;;;;4.65;2.97;;;;;;;21.74;42.54;99073.59;343933;28;1799;-77
2022/08/14 00:18:59;;;;;;;4.90;2.80;;;;;;;21.74;42.23;99073.59;344071;28;1590;-77
2022/08/14 00:19:29;;;;;;;3.63;2.80;;;;;;;21.73;42.49;99078.06;344889;28;1095;-77
2022/08/14 00:19:43;;;;;;;3.67;2.80;;;;;;;21.73;41.97;99077.19;343751;28;1047;-78
2022/08/14 00:19:57;;;;;;;4.13;2.80;;;;;;;21.72;42.27;99072.91;344905;28;1014;-78
2022/08/14 00:20:11;;;;;;;3.72;2.78;;;;;;;21.74;42.32;99073.59;344826;28;1046;-77
2022/08/14 00:20:28;;;;;;;4.03;2.90;;;;;;;21.72;42.70;99079.03;342518;28;1156;-77
2022/08/14 00:20:42;;;;;;;4.88;2.83;;;;;;;21.74;42.63;99078.88;342053;28;1127;-78
2022/08/14 00:20:56;;;;;;;5.25;2.80;;;;;;;21.74;42.75;99068.31;342528;28;1236;-77
2022/08/14 00:21:08;;;;;;;5.10;2.90;;;;;;;21.75;42.60;99075.25;343933;28;1223;-78
2022/08/14 00:21:22;;;;;;;2.92;2.72;;;;;;;21.77;42.47;99073.31;343242;28;2864;-77
2022/08/14 00:21:42;;;;;;;4.95;2.85;;;;;;;21.77;43.29;99073.31;343703;28;1141;-78
2022/08/14 00:21:54;;;;;;;6.20;2.70;;;;;;;21.78;42.73;99072.34;344875;28;1175;-78
2022/08/14 00:22:06;;;;;;;4.40;2.60;;;;;;;21.76;42.83;99071.66;343803;28;1973;-77
2022/08/14 00:22:18;;;;;;;3.35;2.70;;;;;;;21.73;42.61;99069.28;345298;28;930;-77
2022/08/14 00:22:51;;;;;;;3.28;2.72;;;;;;;21.73;42.62;99071.91;345039;28;1522;-78
2022/08/14 00:23:11;;;;;;;3.40;3.10;;;;;;;21.76;42.66;99074.31;344077;28;1033;-77
2022/08/14 00:23:28;;;;;;;3.72;2.92;;;;;;;21.78;42.55;99069.72;344740;28;1211;-78
2022/08/14 00:23:41;;;;;;;4.13;2.80;;;;;;;21.74;42.76;99074.44;345460;28;1074;-77
2022/08/14 00:23:55;;;;;;;4.00;2.83;;;;;;;21.72;42.70;99075.53;345168;28;1171;-78
2022/08/14 00:24:12;;;;;;;3.15;2.80;;;;;;;21.73;42.70;99077.19;343941;28;937;-78
2022/08/14 00:24:34;;;;;;;3.45;3.03;;;;;;;21.70;42.36;99070.38;343843;28;1294;-77
2022/08/14 00:24:46;;;;;;;3.38;2.90;;;;;;;21.71;42.54;99073.84;343708;28;1205;-78
2022/08/14 00:25:00;;;;;;;7.45;2.83;;;;;;;21.74;42.62;99069.13;344286;28;1841;-78
2022/08/14 00:25:12;;;;;;;7.00;2.80;;;;;;;21.74;42.90;99069.13;344996;28;1645;-77
2022/08/14 00:25:27;;;;;;;5.15;2.70;;;;;;;21.76;43.27;99071.66;345392;28;1194;-78
2022/08/14 00:25:54;;;;;;;2.97;2.67;;;;;;;21.77;42.55;99073.31;344349;28;1496;-77
2022/08/14 00:26:17;;;;;;;4.30;2.88;;;;;;;21.77;42.60;99073.31;343698;28;1555;-77
2022/08/14 00:26:34;;;;;;;4.22;2.80;;;;;;;21.80;42.54;99070.41;345249;28;1451;-78
2022/08/14 00:26:46;;;;;;;4.13;2.67;;;;;;;21.81;42.60;99072.09;344813;28;1261;-78
2022/08/14 00:27:03;;;;;;;4.38;2.90;;;;;;;21.81;43.03;99069.47;344808;28;1104;-78
2022/08/14 00:27:15;;;;;;;7.47;3.20;;;;;;;21.82;42.55;99071.13;344711;28;1244;-78
2022/08/14 00:27:28;;;;;;;6.63;3.22;;;;;;;21.85;42.80;99070.84;345391;28;1045;-78
2022/08/14 00:27:48;;;;;;;5.30;2.90;;;;;;;21.87;42.47;99073.34;343826;28;1020;-77
2022/08/14 00:28:09;;;;;;;4.85;2.80;;;;;;;21.88;42.70;99080.31;344956;28;1241;-77
2022/08/14 00:28:26;;;;;;;3.42;2.80;;;;;;;21.89;42.41;99080.19;345182;28;1183;-77
2022/08/14 00:28:43;;;;;;;3.88;2.80;;;;;;;21.89;42.32;99074.03;345122;28;860;-78
2022/08/14 00:28:56;;;;;;;5.72;2.78;;;;;;;21.89;42.77;99072.25;345063;28;1232;-77
2022/08/14 00:29:09;;;;;;;7.20;2.92;;;;;;;21.91;42.64;99070.31;344322;28;1057;-78
2022/08/14 00:29:21;;;;;;;5.10;3.00;;;;;;;21.90;42.99;99073.09;343931;28;1276;-78
2022/08/14 00:29:36;;;;;;;3.97;3.08;;;;;;;21.90;42.50;99067.78;343538;28;955;-77
2022/08/14 00:29:51;;;;;;;3.40;2.80;;;;;;;21.91;42.29;99072.94;343627;28;1198;-77
2022/08/14 00:30:08;;;;;;;4.40;2.67;;;;;;;21.87;42.74;99074.19;343576;28;1015;-78
2022/08/14 00:30:25;;;;;;;5.03;3.03;;;;;;;21.88;42.55;99070.56;343494;28;1057;-77
2022/08/14 00:30:38;;;;;;;4.05;2.90;;;;;;;21.88;42.38;99081.16;343469;28;1076;-77
2022/08/14 00:30:56;;;;;;;3.55;2.58;;;;;;;21.88;42.56;99075.84;343906;28;1230;-78
2022/08/14 00:31:10;;;;;;;3.20;2.67;;;;;;;21.86;42.40;99069.88;343844;28;1074;-77
2022/08/14 00:31:23;;;;;;;3.65;2.80;;;;;;;21.87;42.45;99082.13;343740;28;1092;-78
2022/08/14 00:31:55;;;;;;;3.10;2.80;;;;;;;21.89;42.97;99074.91;343786;28;1563;-77
2022/08/14 00:32:07;;;;;;;3.30;2.80;;;;;;;21.84;42.71;99077.09;343937;28;1155;-77
2022/08/14 00:32:41;;;;;;;2.75;2.55;;;;;;;21.85;43.14;99076.16;343563;28;1415;-77
2022/08/14 00:33:07;;;;;;;4.13;2.70;;;;;;;21.86;43.03;99067.22;343579;28;1018;-77
2022/08/14 00:33:27;;;;;;;3.67;2.70;;;;;;;21.82;43.99;99071.13;343880;28;1168;-78
2022/08/14 00:33:59;;;;;;;3.40;3.10;;;;;;;21.81;43.08;99074.75;343733;28;1561;-78
2022/08/14 00:34:31;;;;;;;4.70;2.78;;;;;;;21.80;42.83;99072.22;343613;28;1527;-78
2022/08/14 00:35:00;;;;;;;4.25;3.00;;;;;;;21.79;42.90;99071.38;343467;28;996;-77
2022/08/14 00:35:12;;;;;;;4.88;2.83;;;;;;;21.81;42.89;99068.59;342414;28;1149;-78
2022/08/14 00:35:25;;;;;;;4.72;2.70;;;;;;;21.81;43.19;99072.09;342881;28;1560;-77
2022/08/14 00:35:57;;;;;;;3.08;2.78;;;;;;;21.76;42.81;99071.66;344010;28;1523;-77
2022/08/14 00:36:29;;;;;;;3.43;2.70;;;;;;;21.83;42.86;99064.88;346177;28;1361;-78
2022/08/14 00:36:50;;;;;;;3.20;2.70;;;;;;;21.86;43.42;99067.22;346503;28;1317;-77
2022/08/14 00:37:04;;;;;;;3.17;2.88;;;;;;;21.84;43.84;99074.47;344696;28;1298;-77
2022/08/14 00:37:16;;;;;;;3.22;2.92;;;;;;;21.86;42.94;99072.50;343875;28;1079;-77
2022/08/14 00:37:29;;;;;;;3.20;2.90;;;;;;;21.87;43.05;99068.91;344789;28;1680;-77
2022/08/14 00:37:45;;;;;;;3.03;2.72;;;;;;;21.87;42.79;99068.06;343961;28;1039;-77
2022/08/14 00:37:57;;;;;;;3.38;2.88;;;;;;;21.89;43.18;99066.97;344007;28;922;-77
2022/08/14 00:38:09;;;;;;;3.70;2.80;;;;;;;21.89;42.87;99066.97;345148;28;1003;-77
2022/08/14 00:38:22;;;;;;;3.17;2.72;;;;;;;21.87;43.25;99066.25;344455;28;1093;-77
2022/08/14 00:38:35;;;;;;;3.03;2.80;;;;;;;21.88;43.83;99065.28;345097;28;1334;-76
2022/08/14 00:38:48;;;;;;;3.10;2.90;;;;;;;21.85;43.58;99065.56;345277;28;959;-77
2022/08/14 00:39:00;;;;;;;3.72;2.80;;;;;;;21.84;43.33;99063.88;344429;28;1711;-78
2022/08/14 00:39:14;;;;;;;3.80;2.80;;;;;;;21.81;43.25;99066.81;344810;28;1240;-77
2022/08/14 00:39:29;;;;;;;3.05;2.80;;;;;;;21.81;43.03;99066.81;344909;28;1143;-77
2022/08/14 00:39:42;;;;;;;3.13;2.92;;;;;;;21.73;42.94;99067.47;343497;28;1067;-77
2022/08/14 00:39:54;;;;;;;3.25;3.00;;;;;;;21.75;43.03;99064.69;343361;28;1249;-77
2022/08/14 00:40:09;;;;;;;3.92;2.90;;;;;;;21.71;43.29;99063.28;342146;28;1263;-77
2022/08/14 00:40:42;;;;;;;4.75;3.08;;;;;;;21.74;43.28;99068.31;344576;28;1408;-77
2022/08/14 00:40:57;;;;;;;3.85;3.03;;;;;;;21.73;43.86;99064.84;342757;28;1527;-77
2022/08/14 00:41:09;;;;;;;3.80;3.08;;;;;;;21.74;43.67;99058.56;343607;28;1087;-77
2022/08/14 00:41:22;;;;;;;3.77;2.97;;;;;;;21.79;43.51;99062.59;343236;28;1095;-77
2022/08/14 00:41:34;;;;;;;3.33;2.90;;;;;;;21.72;43.38;99060.50;343484;28;1211;-77
2022/08/14 00:41:46;;;;;;;4.72;3.00;;;;;;;21.70;44.19;99061.63;344923;28;741;-77
2022/08/14 00:41:59;;;;;;;5.88;3.08;;;;;;;21.70;44.10;99061.63;341837;28;1295;-77
2022/08/14 00:42:13;;;;;;;5.93;2.90;;;;;;;21.69;44.22;99065.22;342107;28;1177;-77
2022/08/14 00:42:45;;;;;;;3.50;3.17;;;;;;;21.72;43.91;99064.97;341186;28;1722;-77
2022/08/14 00:43:08;;;;;;;4.97;3.03;;;;;;;21.75;43.87;99064.69;343603;28;1056;-77
2022/08/14 00:43:21;;;;;;;4.70;2.90;;;;;;;21.74;43.87;99065.66;345295;28;785;-77
2022/08/14 00:43:35;;;;;;;3.20;2.90;;;;;;;21.77;43.43;99062.72;343647;28;1041;-77
2022/08/14 00:43:52;;;;;;;4.35;2.88;;;;;;;21.77;43.80;99062.72;344339;28;1513;-78
2022/08/14 00:44:08;;;;;;;4.05;2.95;;;;;;;21.79;43.55;99059.97;344509;28;1785;-77
2022/08/14 00:44:20;;;;;;;4.45;3.10;;;;;;;21.80;43.37;99059.00;343657;28;1087;-77
2022/08/14 00:44:43;;;;;;;3.67;3.03;;;;;;;21.79;42.89;99060.78;343598;28;2052;-77
2022/08/14 00:44:56;;;;;;;4.28;2.70;;;;;;;21.80;43.66;99062.47;346278;28;1374;-77
2022/08/14 00:45:11;;;;;;;4.35;2.80;;;;;;;21.81;43.68;99058.88;346088;28;1182;-78
2022/08/14 00:45:26;;;;;;;3.45;2.90;;;;;;;21.81;43.76;99064.16;345201;28;1491;-77
2022/08/14 00:45:41;;;;;;;3.53;2.80;;;;;;;21.84;43.37;99063.88;346309;28;1044;-77
2022/08/14 00:46:04;;;;;;;3.05;2.78;;;;;;;21.82;43.43;99063.19;346007;28;1155;-77
2022/08/14 00:46:19;;;;;;;3.08;2.78;;;;;;;21.82;43.75;99063.19;343916;28;1188;-77
2022/08/14 00:46:44;;;;;;;3.70;2.90;;;;;;;21.80;43.59;99065.13;344215;28;1244;-77
2022/08/14 00:46:56;;;;;;;4.07;2.90;;;;;;;21.79;43.54;99060.78;345754;28;1262;-77
2022/08/14 00:47:13;;;;;;;3.90;3.20;;;;;;;21.80;43.61;99064.28;345251;28;792;-77
2022/08/14 00:47:25;;;;;;;4.00;3.35;;;;;;;21.79;44.17;99065.25;343048;28;2031;-77
2022/08/14 00:47:39;;;;;;;3.75;3.00;;;;;;;21.77;44.55;99065.38;342328;28;1054;-77
2022/08/14 00:47:57;;;;;;;5.13;2.90;;;;;;;21.76;44.16;99063.72;342340;28;1320;-77
2022/08/14 00:48:11;;;;;;;5.10;2.92;;;;;;;21.76;44.29;99066.38;343118;28;1918;-77
2022/08/14 00:48:43;;;;;;;3.95;3.10;;;;;;;21.76;44.16;99066.38;343960;28;1657;-77
2022/08/14 00:49:00;;;;;;;3.88;3.03;;;;;;;21.76;44.83;99061.06;343869;28;1494;-77
2022/08/14 00:49:13;;;;;;;3.50;2.90;;;;;;;21.77;44.60;99062.72;344863;28;1067;-77
2022/08/14 00:49:27;;;;;;;3.83;3.00;;;;;;;21.76;44.82;99061.06;345026;28;1071;-77
2022/08/14 00:49:41;;;;;;;4.20;2.95;;;;;;;21.74;44.82;99055.91;345214;28;867;-77
2022/08/14 00:49:55;;;;;;;3.95;2.90;;;;;;;21.74;44.68;99063.03;344806;28;1768;-77
2022/08/14 00:50:10;;;;;;;4.00;3.03;;;;;;;21.74;44.26;99063.03;345100;28;947;-77
2022/08/14 00:50:30;;;;;;;5.25;2.90;;;;;;;21.76;44.46;99061.06;343305;28;1389;-77
2022/08/14 00:50:42;;;;;;;4.22;2.90;;;;;;;21.75;44.99;99064.69;343599;28;1075;-77
2022/08/14 00:50:54;;;;;;;4.05;3.00;;;;;;;21.75;44.69;99064.69;342665;28;1636;-77
2022/08/14 00:51:09;;;;;;;4.38;3.15;;;;;;;21.74;44.50;99063.03;342040;28;1115;-77
2022/08/14 00:51:21;;;;;;;4.63;3.20;;;;;;;21.73;44.42;99061.34;341830;28;936;-77
2022/08/14 00:51:33;;;;;;;4.25;3.08;;;;;;;21.73;44.61;99058.69;342008;28;1297;-77
2022/08/14 00:51:50;;;;;;;4.45;3.05;;;;;;;21.74;44.30;99065.66;342717;28;1729;-77
2022/08/14 00:52:04;;;;;;;5.32;3.25;;;;;;;21.74;44.37;99065.66;342475;28;1748;-77
2022/08/14 00:52:18;;;;;;;4.50;3.10;;;;;;;21.77;44.51;99057.44;343537;28;1083;-77
2022/08/14 00:52:30;;;;;;;3.30;2.97;;;;;;;21.78;44.27;99064.41;343651;28;1127;-77
2022/08/14 00:52:45;;;;;;;3.20;2.88;;;;;;;21.78;44.34;99064.41;342168;28;2040;-77
2022/08/14 00:53:04;;;;;;;4.25;2.92;;;;;;;21.81;44.57;99055.38;343211;28;1560;-77
2022/08/14 00:53:22;;;;;;;3.65;3.10;;;;;;;21.77;44.33;99057.44;341946;28;1547;-77
2022/08/14 00:53:37;;;;;;;3.30;3.00;;;;;;;21.77;44.48;99057.44;343189;28;1873;-77
2022/08/14 00:53:49;;;;;;;4.20;3.07;;;;;;;21.78;44.49;99055.66;343830;28;1042;-77
2022/08/14 00:54:04;;;;;;;5.13;3.22;;;;;;;21.78;45.21;99064.41;343234;28;1387;-77
2022/08/14 00:54:33;;;;;;;3.88;3.10;;;;;;;21.76;44.77;99061.06;343530;28;1068;-77
2022/08/14 00:54:55;;;;;;;3.58;3.00;;;;;;;21.78;44.90;99058.31;343299;28;1656;-77
2022/08/14 00:55:10;;;;;;;4.05;3.08;;;;;;;21.79;45.01;99066.06;343744;28;1982;-77
2022/08/14 00:55:27;;;;;;;5.15;3.05;;;;;;;21.81;44.59;99060.66;343809;28;1397;-77
2022/08/14 00:55:41;;;;;;;5.72;3.20;;;;;;;21.82;44.84;99060.53;344727;28;1579;-77
2022/08/14 00:55:56;;;;;;;4.38;3.28;;;;;;;21.81;45.03;99061.53;344145;28;805;-77
2022/08/14 00:56:09;;;;;;;3.58;3.25;;;;;;;21.82;45.25;99063.19;344017;28;2073;-77
2022/08/14 00:56:26;;;;;;;3.92;3.20;;;;;;;21.84;44.97;99063.88;343219;28;1744;-77
2022/08/14 00:56:43;;;;;;;4.35;3.33;;;;;;;21.83;44.78;99062.22;344689;28;1490;-77
2022/08/14 00:56:55;;;;;;;4.00;3.30;;;;;;;21.85;44.98;99065.56;343274;28;1471;-77
2022/08/14 00:57:07;;;;;;;4.38;3.30;;;;;;;21.85;44.58;99060.28;342794;28;1021;-77
2022/08/14 00:57:25;;;;;;;4.15;3.33;;;;;;;21.85;45.00;99068.22;343312;28;1398;-77
2022/08/14 00:57:39;;;;;;;4.25;3.15;;;;;;;21.85;45.27;99065.56;342143;28;1294;-77
2022/08/14 00:58:30;;;;;;;4.68;3.40;;;;;;;21.87;44.95;99063.63;341690;28;1190;-77
2022/08/14 00:58:45;;;;;;;3.67;3.20;;;;;;;21.89;44.98;99061.66;342030;28;1929;-77
2022/08/14 00:58:59;;;;;;;5.25;3.20;;;;;;;21.88;45.14;99057.34;344146;28;1462;-77
2022/08/14 00:59:11;;;;;;;5.28;3.20;;;;;;;21.89;44.80;99061.66;344776;28;1049;-77
2022/08/14 00:59:27;;;;;;;5.15;3.42;;;;;;;21.88;45.13;99059.16;344343;28;1636;-77
2022/08/14 00:59:40;;;;;;;4.85;3.25;;;;;;;21.89;44.94;99061.66;344625;28;1213;-77
2022/08/14 00:59:52;;;;;;;3.50;3.10;;;;;;;21.89;44.75;99060.81;343915;28;2041;-77
2022/08/14 01:00:13;;;;;;;3.58;3.15;;;;;;;21.91;45.09;99065.00;344835;28;1712;-77
2022/08/14 01:00:47;;;;;;;3.40;3.10;;;;;;;21.89;45.28;99066.09;344177;28;1716;-77
2022/08/14 01:01:10;;;;;;;3.72;3.13;;;;;;;21.90;45.01;99060.69;344546;28;1084;-77
2022/08/14 01:01:22;;;;;;;3.80;3.15;;;;;;;21.89;44.75;99056.38;343686;28;1592;-77
2022/08/14 01:01:35;;;;;;;3.50;3.20;;;;;;;21.88;44.60;99059.97;343396;28;1165;-77
2022/08/14 01:01:48;;;;;;;3.50;3.20;;;;;;;21.89;44.61;99060.81;343390;28;1716;-77
2022/08/14 01:02:01;;;;;;;3.47;3.17;;;;;;;21.89;45.12;99061.66;345091;28;1625;-77
2022/08/14 01:02:18;;;;;;;3.50;3.20;;;;;;;21.89;44.99;99051.09;345055;28;1050;-77
2022/08/14 01:02:31;;;;;;;3.50;3.20;;;;;;;21.91;44.76;99064.16;343550;28;1824;-77
2022/08/14 01:02:43;;;;;;;3.60;3.30;;;;;;;21.89;44.86;99061.66;344659;28;1564;-77
2022/08/14 01:03:06;;;;;;;3.38;3.08;;;;;;;21.90;45.19;99058.03;345826;28;1428;-77
2022/08/14 01:03:20;;;;;;;3.42;3.13;;;;;;;21.91;45.07;99053.56;345349;28;1666;-77
2022/08/14 01:03:34;;;;;;;3.72;3.42;;;;;;;21.91;45.33;99062.38;346144;28;1176;-77
2022/08/14 01:03:47;;;;;;;3.83;3.53;;;;;;;21.91;45.60;99054.44;345504;28;1765;-77
2022/08/14 01:04:04;;;;;;;3.80;3.35;;;;;;;21.92;44.94;99056.09;344969;28;1251;-77
2022/08/14 01:04:16;;;;;;;3.88;3.33;;;;;;;21.92;45.45;99058.72;344956;28;1222;-77
2022/08/14 01:04:49;;;;;;;4.07;3.30;;;;;;;21.93;44.63;99056.91;345095;28;1511;-77
2022/08/14 01:05:06;;;;;;;3.30;3.00;;;;;;;21.94;44.44;99064.72;342433;28;1061;-77
2022/08/14 01:05:24;;;;;;;3.38;3.08;;;;;;;21.93;44.62;99055.13;342148;28;1354;-77
2022/08/14 01:05:46;;;;;;;3.50;3.20;;;;;;;21.94;44.71;99059.44;341971;28;1057;-77
2022/08/14 01:06:03;;;;;;;3.78;3.38;;;;;;;21.94;44.41;99064.72;344721;28;1290;-77
2022/08/14 01:06:18;;;;;;;4.90;3.50;;;;;;;21.92;44.93;99056.09;344764;28;1299;-77
2022/08/14 01:06:31;;;;;;;4.20;3.25;;;;;;;21.92;44.88;99061.38;344733;28;1918;-77
2022/08/14 01:06:45;;;;;;;3.42;3.00;;;;;;;21.93;44.75;99056.91;343451;28;1264;-77
2022/08/14 01:06:57;;;;;;;3.63;3.13;;;;;;;21.94;44.48;99053.31;343404;28;1595;-77
2022/08/14 01:07:10;;;;;;;3.88;3.20;;;;;;;21.96;44.47;99055.84;343367;28;1255;-77
2022/08/14 01:07:28;;;;;;;4.85;3.20;;;;;;;21.95;44.76;99060.25;342226;28;1078;-77
2022/08/14 01:07:56;;;;;;;4.80;3.50;;;;;;;21.97;44.42;99052.19;342545;28;1384;-77
2022/08/14 01:08:10;;;;;;;5.32;3.30;;;;;;;21.99;44.88;99058.19;343395;28;1142;-77
2022/08/14 01:08:43;;;;;;;3.63;3.03;;;;;;;21.96;44.80;99061.94;343109;28;1914;-77
2022/08/14 01:09:09;;;;;;;3.95;3.28;;;;;;;21.97;44.92;99049.53;342307;28;1620;-77
2022/08/14 01:09:22;;;;;;;3.65;3.28;;;;;;;21.98;44.60;99059.16;343409;28;1229;-77
2022/08/14 01:09:35;;;;;;;3.67;3.38;;;;;;;21.98;44.55;99054.72;343012;28;1655;-77
2022/08/14 01:10:00;;;;;;;3.70;3.40;;;;;;;21.99;44.53;99056.38;343731;28;1743;-77
2022/08/14 01:10:12;;;;;;;3.88;3.50;;;;;;;22.00;44.56;99059.88;341999;28;1099;-77
2022/08/14 01:10:59;;;;;;;5.03;3.10;;;;;;;22.01;44.46;99061.53;342432;28;1236;-77
2022/08/14 01:11:16;;;;;;;5.75;3.00;;;;;;;22.01;44.58;99058.88;342426;28;1094;-77
2022/08/14 01:11:30;;;;;;;5.10;3.15;;;;;;;22.00;44.50;99062.53;342538;28;1979;-77
2022/08/14 01:11:51;;;;;;;4.97;3.20;;;;;;;22.02;44.20;99056.09;344101;28;1484;-77
2022/08/14 01:12:16;;;;;;;3.42;3.13;;;;;;;22.02;44.24;99057.91;343118;28;1896;-77
2022/08/14 01:12:48;;;;;;;3.53;3.15;;;;;;;22.02;44.36;99055.28;344853;28;1462;-77
2022/08/14 01:13:00;;;;;;;3.97;3.10;;;;;;;22.01;44.47;99048.28;343935;28;1101;-77
2022/08/14 01:13:15;;;;;;;4.28;3.10;;;;;;;22.02;44.51;99055.28;345224;28;1157;-77
2022/08/14 01:13:31;;;;;;;4.07;3.28;;;;;;;22.01;44.87;99059.72;344627;28;1045;-77
2022/08/14 01:13:58;;;;;;;3.83;3.10;;;;;;;22.00;44.45;99062.53;341842;28;1106;-77
2022/08/14 01:14:12;;;;;;;3.42;3.13;;;;;;;21.98;44.52;99056.53;342336;28;1052;-77
2022/08/14 01:14:39;;;;;;;3.53;3.22;;;;;;;21.96;45.10;99055.84;342035;28;1023;-77
2022/08/14 01:14:54;;;;;;;3.80;3.35;;;;;;;21.97;44.85;99058.31;342521;28;1929;-77
2022/08/14 01:15:09;;;;;;;3.53;3.22;;;;;;;21.97;44.85;99054.84;343948;28;1677;-77
2022/08/14 01:15:25;;;;;;;3.78;3.17;;;;;;;21.93;44.92;99051.63;343462;28;1590;-77
2022/08/14 01:16:00;;;;;;;4.50;3.50;;;;;;;21.96;44.57;99053.19;343957;28;1559;-77
2022/08/14 01:16:15;;;;;;;3.90;3.20;;;;;;;21.92;44.80;99050.78;343435;28;1036;-77
2022/08/14 01:16:30;;;;;;;3.60;3.00;;;;;;;21.92;44.80;99056.09;343938;28;1414;-77
2022/08/14 01:16:43;;;;;;;3.42;3.10;;;;;;;21.91;45.22;99049.13;345300;28;1081;-77
2022/08/14 01:16:58;;;;;;;3.40;3.10;;;;;;;21.91;44.83;99049.13;344520;28;1428;-77
2022/08/14 01:17:11;;;;;;;3.40;3.10;;;;;;;21.92;44.99;99053.44;345249;28;1026;-77
2022/08/14 01:21:02;;;;;;;4.45;3.17;;;;;;;21.89;45.23;99051.09;344286;28;1640;-77
2022/08/14 01:21:16;;;;;;;4.22;3.10;;;;;;;21.89;44.75;99053.72;343828;28;1285;-77
2022/08/14 01:21:32;;;;;;;4.18;3.20;;;;;;;21.88;45.04;99049.41;344263;28;1803;-77
2022/08/14 01:21:46;;;;;;;3.60;3.30;;;;;;;21.89;44.76;99051.09;345155;28;916;-76
2022/08/14 01:22:06;;;;;;;3.40;3.10;;;;;;;21.88;45.24;99052.03;344345;28;1665;-77
2022/08/14 01:22:23;;;;;;;3.42;3.03;;;;;;;21.88;44.93;99045.94;344745;28;1174;-77
2022/08/14 01:22:37;;;;;;;3.50;3.20;;;;;;;21.87;44.77;99045.09;343774;28;1076;-77
2022/08/14 01:22:53;;;;;;;3.65;3.28;;;;;;;21.89;44.72;99051.09;343201;28;1780;-77
2022/08/14 01:23:10;;;;;;;3.50;3.20;;;;;;;21.88;44.91;99054.69;343435;28;1548;-77
2022/08/14 01:23:30;;;;;;;4.60;3.25;;;;;;;21.86;44.59;99056.63;342562;28;847;-77
2022/08/14 01:23:58;;;;;;;3.33;3.03;;;;;;;21.89;44.89;99047.59;343764;28;1270;-77
2022/08/14 01:24:14;;;;;;;3.38;3.08;;;;;;;21.87;45.49;99053.03;344642;28;1031;-77
2022/08/14 01:24:35;;;;;;;3.75;3.45;;;;;;;21.87;45.11;99053.03;344165;28;1585;-77
2022/08/14 01:24:47;;;;;;;3.80;3.50;;;;;;;21.85;45.38;99049.69;344134;28;1784;-77
2022/08/14 01:25:02;;;;;;;4.00;3.45;;;;;;;21.87;45.36;99047.75;344314;28;1540;-77
2022/08/14 01:25:14;;;;;;;4.32;3.47;;;;;;;21.87;44.76;99046.88;344907;28;1049;-77
2022/08/14 01:25:27;;;;;;;3.95;3.40;;;;;;;21.86;44.85;99048.69;344777;28;1476;-77
2022/08/14 01:25:40;;;;;;;4.13;3.38;;;;;;;21.87;44.84;99053.03;344478;28;1130;-77
2022/08/14 01:25:53;;;;;;;6.78;3.50;;;;;;;21.88;45.41;99045.94;343759;28;1625;-77
2022/08/14 01:26:07;;;;;;;7.07;3.42;;;;;;;21.85;45.28;99049.69;344903;28;1505;-77